GCRR Airport Information

Runway Information
Runway 03 Length 7874 ft width 148 ft
Elevation 18 ft Threshold 0 ft Heading 27
Runway 21 Length 7874 ft Width 148 ft
Elevation 47 ft Threshold 0 ft Heading 207
Airport Frequencies
Type APP Name CANARIAS A Frequency 129.3 MHZ
Type ATIS Name ATIS Frequency 118.625 MHZ
Type GND Name GND Frequency 121.8 MHZ
Type TWR Name TWR Frequency 120.7 MHZ
Airport Navaids
Type VOR-DME Name Lanzarote Frequency 113700 KHZ
Type NDB Name Lanzarote Frequency 310 KHZ
Type VOR-DME Name Lanzarote Frequency 115200 KHZ
Type TACAN Name Lanzarote Frequency 114700 KHZ
Airport Weather Information & NOTAM
ADDS - METARS form results

(1023 UTC 21 June 2021)
Data provider http://aviationweather.gov/metar/data/
 
METAR text: GCRR 211000Z 01016KT 9999 FEW025 SCT030 24/16 Q1018
Conditions at: GCRR (ARRECIFE/LANZARO, ES) observed 1000 UTC 21 June 2021
Temperature: 24.0°C (75°F)
Dewpoint: 16.0°C (61°F) [RH = 61%]
Pressure (altimeter): 30.06 inches Hg (1018.0 mb)
Winds: from the N (10 degrees) at 18 MPH (16 knots; 8.2 m/s)
Visibility: 6 or more miles (10+ km)
Ceiling: at least 12,000 feet AGL
Clouds: few clouds at 2500 feet AGL
scattered clouds at 3000 feet AGL
Weather: no significant weather observed at this time

METAR text: GCRR 210930Z 36015KT 9999 FEW018 BKN030 23/17 Q1018
Conditions at: GCRR (ARRECIFE/LANZARO, ES) observed 0930 UTC 21 June 2021
Temperature: 23.0°C (73°F)
Dewpoint: 17.0°C (63°F) [RH = 69%]
Pressure (altimeter): 30.06 inches Hg (1018.0 mb)
Winds: from the N (360 degrees) at 17 MPH (15 knots; 7.7 m/s)
Visibility: 6 or more miles (10+ km)
Ceiling: 3000 feet AGL
Clouds: few clouds at 1800 feet AGL
broken clouds at 3000 feet AGL
Weather: no significant weather observed at this time

Forecast for: GCRR (ARRECIFE/LANZARO, ES)
Text: TAF GCRR 210800Z 2109/2209 01012KT 9999 BKN025 TX26/2114Z TN20/2206Z
Forecast period: 0900 UTC 21 June 2021 to 0900 UTC 22 June 2021
Forecast type: FROM: standard forecast or significant change
Winds: from the N (10 degrees) at 14 MPH (12 knots; 6.2 m/s)
Visibility: 6 or more miles (10+ km)
Ceiling: 2500 feet AGL
Clouds: broken clouds at 2500 feet AGL
Weather: no significant weather forecast for this period